Hlavní strana
METAR-TAF:

METAR-TAF

Letiště :

Meridian Regional Airport (Key Field)

Meridian, Mississippi, Spojené státy americké

zeměpisná šířka: 32-20-17N, zeměpisná délka: 088-44-52W, výška: 90 m

Aktuální stav počasí

Zpráva byla vytvořena před 1 hodinou a 6 minutami, v 09:58 UTC
Bezvětří
Teplota 23°C
Vlhkost vzduchu 89%
Tlak 1020 hPa
Viditelnost: 14.5 km
Polojasno ve výšce 7500 ft

METAR: KMEI 240958Z AUTO 00000KT 9SM SCT075 23/21 A3011 RMK AO2 SLP192 T02330211 $

Čas: 06:04 (11:04 UTC)

Předpověď počasí

Zpráva byla vytvořena před 5 hodinami a 42 minutami, v 05:22 UTC
Předpověď platná od 24 v 06 UTC do 25 v 06 UTC
Severní vítr kt
Viditelnost: 10 km
Skoro jasno ve výšce 4000 ft
Od 24 v 1000 UTC
Severní vítr kt
Viditelnost: 4.8 km
Polojasno ve výšce 400 ft
kouřmo
Od 24 v 1300 UTC
Jižní vítr 7 kt
Viditelnost: 10 km
Skoro jasno ve výšce 4000 ft

TAF: KMEI 240522Z 2406/2506 00000KT P6SM FEW040 FM241000 00000KT 3SM BR SCT004 FM241300 17007KT P6SM FEW040

Stav a předpovědi počasí z více než 4 000 letišť (zprávy METAR a TAF).

Červené a žluté tečky na mapě představují dostupné meteorologické stanice.

Když kurzor umístíte na tečku, zobrazí se název stanice.

Pak kliknutím zobrazíte stav a předpověď počasí.

Chcete-li změnit mapu, kliknutím na zelené tlačítko se znaménkem +mapu přiblížíte, kliknutím na zelené tlačítko se znaménkem – mapu oddálíte a kliknutím na zelené šipky přejdete na sousední mapy.


METAR-TAF: